sensor_id;sensor_type;location;lat;lon;timestamp;P1;durP1;ratioP1;P2;durP2;ratioP2
57842;SDS011;43673;51.058;3.734;2023-05-07T00:00:00;12.45;;;6.97;;
57842;SDS011;43673;51.058;3.734;2023-05-07T00:02:26;14.80;;;6.05;;
57842;SDS011;43673;51.058;3.734;2023-05-07T00:04:51;13.60;;;6.60;;
57842;SDS011;43673;51.058;3.734;2023-05-07T00:07:17;12.43;;;5.65;;
57842;SDS011;43673;51.058;3.734;2023-05-07T00:09:43;19.05;;;7.63;;
57842;SDS011;43673;51.058;3.734;2023-05-07T00:12:09;17.90;;;6.55;;
57842;SDS011;43673;51.058;3.734;2023-05-07T00:14:34;15.27;;;6.70;;
57842;SDS011;43673;51.058;3.734;2023-05-07T00:17:00;11.23;;;6.13;;
57842;SDS011;43673;51.058;3.734;2023-05-07T00:19:26;11.70;;;5.93;;
57842;SDS011;43673;51.058;3.734;2023-05-07T00:21:52;11.75;;;6.20;;
57842;SDS011;43673;51.058;3.734;2023-05-07T00:24:22;13.93;;;6.53;;
57842;SDS011;43673;51.058;3.734;2023-05-07T00:26:47;13.88;;;7.90;;
57842;SDS011;43673;51.058;3.734;2023-05-07T00:29:13;14.80;;;6.63;;
57842;SDS011;43673;51.058;3.734;2023-05-07T00:31:39;16.40;;;6.22;;
57842;SDS011;43673;51.058;3.734;2023-05-07T00:34:04;11.05;;;5.88;;
57842;SDS011;43673;51.058;3.734;2023-05-07T00:36:31;15.15;;;5.97;;
57842;SDS011;43673;51.058;3.734;2023-05-07T00:38:58;11.98;;;6.47;;
57842;SDS011;43673;51.058;3.734;2023-05-07T00:41:25;14.52;;;4.82;;
57842;SDS011;43673;51.058;3.734;2023-05-07T00:43:51;14.43;;;6.40;;
57842;SDS011;43673;51.058;3.734;2023-05-07T00:46:17;10.13;;;5.85;;
57842;SDS011;43673;51.058;3.734;2023-05-07T00:48:47;16.15;;;5.85;;
57842;SDS011;43673;51.058;3.734;2023-05-07T00:51:14;9.40;;;5.88;;
57842;SDS011;43673;51.058;3.734;2023-05-07T00:53:40;11.15;;;5.95;;
57842;SDS011;43673;51.058;3.734;2023-05-07T00:56:06;11.93;;;6.97;;
57842;SDS011;43673;51.058;3.734;2023-05-07T00:58:32;11.48;;;5.65;;
57842;SDS011;43673;51.058;3.734;2023-05-07T01:00:58;15.93;;;5.15;;
57842;SDS011;43673;51.058;3.734;2023-05-07T01:03:24;13.68;;;6.32;;
57842;SDS011;43673;51.058;3.734;2023-05-07T01:05:50;12.73;;;5.80;;
57842;SDS011;43673;51.058;3.734;2023-05-07T01:08:18;9.20;;;5.22;;
57842;SDS011;43673;51.058;3.734;2023-05-07T01:10:45;10.60;;;5.72;;
57842;SDS011;43673;51.058;3.734;2023-05-07T01:13:12;15.65;;;7.35;;
57842;SDS011;43673;51.058;3.734;2023-05-07T01:15:38;19.55;;;6.07;;
57842;SDS011;43673;51.058;3.734;2023-05-07T01:18:06;18.27;;;6.82;;
57842;SDS011;43673;51.058;3.734;2023-05-07T01:20:32;10.55;;;5.75;;
57842;SDS011;43673;51.058;3.734;2023-05-07T01:22:58;18.77;;;6.13;;
57842;SDS011;43673;51.058;3.734;2023-05-07T01:25:25;9.88;;;5.93;;
57842;SDS011;43673;51.058;3.734;2023-05-07T01:27:51;13.18;;;6.97;;
57842;SDS011;43673;51.058;3.734;2023-05-07T01:30:17;17.65;;;6.95;;
57842;SDS011;43673;51.058;3.734;2023-05-07T01:32:59;14.45;;;6.85;;
57842;SDS011;43673;51.058;3.734;2023-05-07T01:35:32;23.25;;;9.32;;
57842;SDS011;43673;51.058;3.734;2023-05-07T01:38:03;18.42;;;6.80;;
57842;SDS011;43673;51.058;3.734;2023-05-07T01:40:31;12.40;;;7.53;;
57842;SDS011;43673;51.058;3.734;2023-05-07T01:42:56;12.73;;;6.78;;
57842;SDS011;43673;51.058;3.734;2023-05-07T01:45:22;13.70;;;7.57;;
57842;SDS011;43673;51.058;3.734;2023-05-07T01:47:49;10.45;;;7.57;;
57842;SDS011;43673;51.058;3.734;2023-05-07T01:50:15;13.80;;;8.13;;
57842;SDS011;43673;51.058;3.734;2023-05-07T01:52:43;16.88;;;7.50;;
57842;SDS011;43673;51.058;3.734;2023-05-07T01:55:09;19.50;;;9.00;;
57842;SDS011;43673;51.058;3.734;2023-05-07T01:57:34;14.27;;;7.40;;
57842;SDS011;43673;51.058;3.734;2023-05-07T02:00:01;19.40;;;6.93;;
57842;SDS011;43673;51.058;3.734;2023-05-07T02:02:30;18.05;;;7.15;;
57842;SDS011;43673;51.058;3.734;2023-05-07T02:04:56;16.15;;;8.38;;
57842;SDS011;43673;51.058;3.734;2023-05-07T02:07:22;13.57;;;7.43;;
57842;SDS011;43673;51.058;3.734;2023-05-07T02:09:47;12.90;;;7.13;;
57842;SDS011;43673;51.058;3.734;2023-05-07T02:12:13;15.18;;;7.82;;
57842;SDS011;43673;51.058;3.734;2023-05-07T02:14:38;19.55;;;8.50;;
57842;SDS011;43673;51.058;3.734;2023-05-07T02:17:04;12.13;;;7.53;;
57842;SDS011;43673;51.058;3.734;2023-05-07T02:19:30;14.23;;;7.80;;
57842;SDS011;43673;51.058;3.734;2023-05-07T02:21:55;16.17;;;8.25;;
57842;SDS011;43673;51.058;3.734;2023-05-07T02:24:21;13.10;;;8.10;;
57842;SDS011;43673;51.058;3.734;2023-05-07T02:26:47;12.57;;;6.78;;
57842;SDS011;43673;51.058;3.734;2023-05-07T02:29:12;18.10;;;8.57;;
57842;SDS011;43673;51.058;3.734;2023-05-07T02:31:38;15.07;;;8.02;;
57842;SDS011;43673;51.058;3.734;2023-05-07T02:34:04;14.63;;;8.13;;
57842;SDS011;43673;51.058;3.734;2023-05-07T02:36:29;17.75;;;7.78;;
57842;SDS011;43673;51.058;3.734;2023-05-07T02:38:55;19.48;;;8.57;;
57842;SDS011;43673;51.058;3.734;2023-05-07T02:41:20;15.50;;;7.07;;
57842;SDS011;43673;51.058;3.734;2023-05-07T02:43:46;18.27;;;7.75;;
57842;SDS011;43673;51.058;3.734;2023-05-07T02:46:12;13.13;;;8.10;;
57842;SDS011;43673;51.058;3.734;2023-05-07T02:48:37;17.70;;;8.50;;
57842;SDS011;43673;51.058;3.734;2023-05-07T02:51:03;18.30;;;7.82;;
57842;SDS011;43673;51.058;3.734;2023-05-07T02:53:30;14.85;;;7.82;;
57842;SDS011;43673;51.058;3.734;2023-05-07T02:55:57;14.38;;;8.32;;
57842;SDS011;43673;51.058;3.734;2023-05-07T02:58:24;16.92;;;8.70;;
57842;SDS011;43673;51.058;3.734;2023-05-07T03:00:50;16.83;;;7.53;;
57842;SDS011;43673;51.058;3.734;2023-05-07T03:03:16;16.60;;;7.20;;
57842;SDS011;43673;51.058;3.734;2023-05-07T03:05:42;17.83;;;7.97;;
57842;SDS011;43673;51.058;3.734;2023-05-07T03:08:08;18.05;;;7.20;;
57842;SDS011;43673;51.058;3.734;2023-05-07T03:10:35;16.20;;;8.60;;
57842;SDS011;43673;51.058;3.734;2023-05-07T03:13:01;11.90;;;7.32;;
57842;SDS011;43673;51.058;3.734;2023-05-07T03:15:27;14.73;;;7.65;;
57842;SDS011;43673;51.058;3.734;2023-05-07T03:17:53;12.90;;;7.68;;
57842;SDS011;43673;51.058;3.734;2023-05-07T03:20:18;15.77;;;8.13;;
57842;SDS011;43673;51.058;3.734;2023-05-07T03:22:44;19.88;;;8.80;;
57842;SDS011;43673;51.058;3.734;2023-05-07T03:25:10;13.95;;;7.30;;
57842;SDS011;43673;51.058;3.734;2023-05-07T03:27:36;14.65;;;7.80;;
57842;SDS011;43673;51.058;3.734;2023-05-07T03:30:02;19.88;;;7.28;;
57842;SDS011;43673;51.058;3.734;2023-05-07T03:32:27;10.45;;;8.52;;
57842;SDS011;43673;51.058;3.734;2023-05-07T03:34:53;17.70;;;8.80;;
57842;SDS011;43673;51.058;3.734;2023-05-07T03:37:19;17.95;;;9.32;;
57842;SDS011;43673;51.058;3.734;2023-05-07T03:39:44;16.60;;;9.07;;
57842;SDS011;43673;51.058;3.734;2023-05-07T03:42:10;15.52;;;7.75;;
57842;SDS011;43673;51.058;3.734;2023-05-07T03:44:36;18.17;;;7.65;;
57842;SDS011;43673;51.058;3.734;2023-05-07T03:47:02;13.65;;;7.75;;
57842;SDS011;43673;51.058;3.734;2023-05-07T03:49:28;14.13;;;7.70;;
57842;SDS011;43673;51.058;3.734;2023-05-07T03:51:54;12.70;;;8.40;;
57842;SDS011;43673;51.058;3.734;2023-05-07T03:54:20;17.05;;;8.95;;
57842;SDS011;43673;51.058;3.734;2023-05-07T03:56:46;18.20;;;9.32;;
57842;SDS011;43673;51.058;3.734;2023-05-07T03:59:12;18.40;;;8.32;;
57842;SDS011;43673;51.058;3.734;2023-05-07T04:01:38;16.65;;;8.70;;
57842;SDS011;43673;51.058;3.734;2023-05-07T04:04:04;16.23;;;8.25;;
57842;SDS011;43673;51.058;3.734;2023-05-07T04:06:30;20.95;;;8.77;;
57842;SDS011;43673;51.058;3.734;2023-05-07T04:08:56;13.75;;;8.38;;
57842;SDS011;43673;51.058;3.734;2023-05-07T04:11:22;14.23;;;9.15;;
57842;SDS011;43673;51.058;3.734;2023-05-07T04:13:48;12.73;;;7.70;;
57842;SDS011;43673;51.058;3.734;2023-05-07T04:16:13;14.93;;;8.35;;
57842;SDS011;43673;51.058;3.734;2023-05-07T04:18:39;14.13;;;8.48;;
57842;SDS011;43673;51.058;3.734;2023-05-07T04:21:05;12.18;;;7.85;;
57842;SDS011;43673;51.058;3.734;2023-05-07T04:23:31;27.85;;;9.25;;
57842;SDS011;43673;51.058;3.734;2023-05-07T04:25:56;15.82;;;8.85;;
57842;SDS011;43673;51.058;3.734;2023-05-07T04:28:22;15.43;;;8.30;;
57842;SDS011;43673;51.058;3.734;2023-05-07T04:30:48;16.45;;;8.75;;
57842;SDS011;43673;51.058;3.734;2023-05-07T04:33:14;15.60;;;9.18;;
57842;SDS011;43673;51.058;3.734;2023-05-07T04:35:43;13.52;;;9.05;;
57842;SDS011;43673;51.058;3.734;2023-05-07T04:38:08;17.05;;;9.75;;
57842;SDS011;43673;51.058;3.734;2023-05-07T04:40:35;17.80;;;8.60;;
57842;SDS011;43673;51.058;3.734;2023-05-07T04:43:01;14.43;;;8.65;;
57842;SDS011;43673;51.058;3.734;2023-05-07T04:45:27;14.05;;;8.30;;
57842;SDS011;43673;51.058;3.734;2023-05-07T04:47:52;14.00;;;9.15;;
57842;SDS011;43673;51.058;3.734;2023-05-07T04:50:18;18.48;;;9.18;;
57842;SDS011;43673;51.058;3.734;2023-05-07T04:52:44;20.67;;;8.98;;
57842;SDS011;43673;51.058;3.734;2023-05-07T04:55:10;11.43;;;8.98;;
57842;SDS011;43673;51.058;3.734;2023-05-07T04:57:36;13.80;;;8.52;;
57842;SDS011;43673;51.058;3.734;2023-05-07T05:00:04;21.73;;;9.70;;
57842;SDS011;43673;51.058;3.734;2023-05-07T05:02:30;14.43;;;8.27;;
57842;SDS011;43673;51.058;3.734;2023-05-07T05:04:56;17.05;;;9.50;;
57842;SDS011;43673;51.058;3.734;2023-05-07T05:07:22;20.73;;;10.15;;
57842;SDS011;43673;51.058;3.734;2023-05-07T05:09:47;16.58;;;9.35;;
57842;SDS011;43673;51.058;3.734;2023-05-07T05:12:13;14.65;;;8.50;;
57842;SDS011;43673;51.058;3.734;2023-05-07T05:14:39;22.25;;;9.38;;
57842;SDS011;43673;51.058;3.734;2023-05-07T05:17:04;14.23;;;9.32;;
57842;SDS011;43673;51.058;3.734;2023-05-07T05:19:30;13.68;;;8.93;;
57842;SDS011;43673;51.058;3.734;2023-05-07T05:21:55;18.35;;;9.68;;
57842;SDS011;43673;51.058;3.734;2023-05-07T05:24:21;20.10;;;9.27;;
57842;SDS011;43673;51.058;3.734;2023-05-07T05:26:47;14.07;;;9.45;;
57842;SDS011;43673;51.058;3.734;2023-05-07T05:29:12;14.02;;;7.47;;
57842;SDS011;43673;51.058;3.734;2023-05-07T05:31:38;14.88;;;8.73;;
57842;SDS011;43673;51.058;3.734;2023-05-07T05:34:04;19.27;;;8.90;;
57842;SDS011;43673;51.058;3.734;2023-05-07T05:36:29;14.05;;;8.40;;
57842;SDS011;43673;51.058;3.734;2023-05-07T05:38:55;15.02;;;8.20;;
57842;SDS011;43673;51.058;3.734;2023-05-07T05:41:21;13.00;;;7.65;;
57842;SDS011;43673;51.058;3.734;2023-05-07T05:43:46;19.50;;;9.50;;
57842;SDS011;43673;51.058;3.734;2023-05-07T05:46:13;15.57;;;7.95;;
57842;SDS011;43673;51.058;3.734;2023-05-07T05:48:40;17.48;;;8.05;;
57842;SDS011;43673;51.058;3.734;2023-05-07T05:51:05;16.35;;;7.78;;
57842;SDS011;43673;51.058;3.734;2023-05-07T05:53:31;15.30;;;7.72;;
57842;SDS011;43673;51.058;3.734;2023-05-07T05:55:57;12.57;;;7.88;;
57842;SDS011;43673;51.058;3.734;2023-05-07T05:58:22;16.42;;;8.05;;
57842;SDS011;43673;51.058;3.734;2023-05-07T06:00:49;14.85;;;8.20;;
57842;SDS011;43673;51.058;3.734;2023-05-07T06:03:17;17.50;;;8.10;;
57842;SDS011;43673;51.058;3.734;2023-05-07T06:05:43;13.60;;;8.23;;
57842;SDS011;43673;51.058;3.734;2023-05-07T06:08:08;14.43;;;8.68;;
57842;SDS011;43673;51.058;3.734;2023-05-07T06:10:35;17.27;;;9.57;;
57842;SDS011;43673;51.058;3.734;2023-05-07T06:13:02;17.05;;;9.10;;
57842;SDS011;43673;51.058;3.734;2023-05-07T06:15:27;13.77;;;8.60;;
57842;SDS011;43673;51.058;3.734;2023-05-07T06:17:53;16.27;;;8.50;;
57842;SDS011;43673;51.058;3.734;2023-05-07T06:20:20;19.88;;;9.93;;
57842;SDS011;43673;51.058;3.734;2023-05-07T06:22:46;12.88;;;8.35;;
57842;SDS011;43673;51.058;3.734;2023-05-07T06:25:12;15.25;;;8.20;;
57842;SDS011;43673;51.058;3.734;2023-05-07T06:27:37;14.05;;;8.18;;
57842;SDS011;43673;51.058;3.734;2023-05-07T06:30:04;17.00;;;8.07;;
57842;SDS011;43673;51.058;3.734;2023-05-07T06:32:31;13.88;;;7.07;;
57842;SDS011;43673;51.058;3.734;2023-05-07T06:34:56;11.82;;;6.80;;
57842;SDS011;43673;51.058;3.734;2023-05-07T06:37:22;15.93;;;6.85;;
57842;SDS011;43673;51.058;3.734;2023-05-07T06:39:48;13.20;;;7.72;;
57842;SDS011;43673;51.058;3.734;2023-05-07T06:42:13;13.43;;;6.97;;
57842;SDS011;43673;51.058;3.734;2023-05-07T06:44:39;17.02;;;7.53;;
57842;SDS011;43673;51.058;3.734;2023-05-07T06:47:05;14.02;;;7.47;;
57842;SDS011;43673;51.058;3.734;2023-05-07T06:49:30;13.15;;;7.45;;
57842;SDS011;43673;51.058;3.734;2023-05-07T06:51:56;12.05;;;7.05;;
57842;SDS011;43673;51.058;3.734;2023-05-07T06:54:22;10.98;;;6.32;;
57842;SDS011;43673;51.058;3.734;2023-05-07T06:56:48;16.90;;;7.68;;
57842;SDS011;43673;51.058;3.734;2023-05-07T06:59:14;15.15;;;8.00;;
57842;SDS011;43673;51.058;3.734;2023-05-07T07:01:40;10.82;;;6.47;;
57842;SDS011;43673;51.058;3.734;2023-05-07T07:04:05;14.60;;;6.18;;
57842;SDS011;43673;51.058;3.734;2023-05-07T07:06:31;11.65;;;6.43;;
57842;SDS011;43673;51.058;3.734;2023-05-07T07:08:57;9.18;;;5.50;;
57842;SDS011;43673;51.058;3.734;2023-05-07T07:11:23;10.02;;;6.55;;
57842;SDS011;43673;51.058;3.734;2023-05-07T07:13:49;9.65;;;6.03;;
57842;SDS011;43673;51.058;3.734;2023-05-07T07:16:15;10.95;;;6.47;;
57842;SDS011;43673;51.058;3.734;2023-05-07T07:18:41;11.18;;;6.43;;
57842;SDS011;43673;51.058;3.734;2023-05-07T07:21:07;10.13;;;5.97;;
57842;SDS011;43673;51.058;3.734;2023-05-07T07:23:33;16.27;;;6.65;;
57842;SDS011;43673;51.058;3.734;2023-05-07T07:25:58;7.68;;;4.93;;
57842;SDS011;43673;51.058;3.734;2023-05-07T07:28:24;10.68;;;5.68;;
57842;SDS011;43673;51.058;3.734;2023-05-07T07:30:50;9.32;;;5.35;;
57842;SDS011;43673;51.058;3.734;2023-05-07T07:33:16;9.73;;;5.75;;
57842;SDS011;43673;51.058;3.734;2023-05-07T07:35:41;10.93;;;5.15;;
57842;SDS011;43673;51.058;3.734;2023-05-07T07:38:07;11.35;;;5.97;;
57842;SDS011;43673;51.058;3.734;2023-05-07T07:40:36;17.75;;;5.18;;
57842;SDS011;43673;51.058;3.734;2023-05-07T07:43:02;11.20;;;6.22;;
57842;SDS011;43673;51.058;3.734;2023-05-07T07:45:27;8.90;;;5.50;;
57842;SDS011;43673;51.058;3.734;2023-05-07T07:47:54;9.48;;;5.45;;
57842;SDS011;43673;51.058;3.734;2023-05-07T07:50:19;8.13;;;4.95;;
57842;SDS011;43673;51.058;3.734;2023-05-07T07:52:45;9.57;;;5.43;;
57842;SDS011;43673;51.058;3.734;2023-05-07T07:55:11;10.07;;;5.28;;
57842;SDS011;43673;51.058;3.734;2023-05-07T07:57:37;9.07;;;5.38;;
57842;SDS011;43673;51.058;3.734;2023-05-07T08:00:05;10.00;;;5.85;;
57842;SDS011;43673;51.058;3.734;2023-05-07T08:02:32;10.70;;;5.43;;
57842;SDS011;43673;51.058;3.734;2023-05-07T08:04:57;10.43;;;5.25;;
57842;SDS011;43673;51.058;3.734;2023-05-07T08:07:23;8.50;;;4.90;;
57842;SDS011;43673;51.058;3.734;2023-05-07T08:09:49;11.88;;;6.13;;
57842;SDS011;43673;51.058;3.734;2023-05-07T08:12:14;9.80;;;5.28;;
57842;SDS011;43673;51.058;3.734;2023-05-07T08:14:40;8.85;;;5.63;;
57842;SDS011;43673;51.058;3.734;2023-05-07T08:17:06;12.48;;;5.65;;
57842;SDS011;43673;51.058;3.734;2023-05-07T08:19:32;11.52;;;6.05;;
57842;SDS011;43673;51.058;3.734;2023-05-07T08:21:57;9.48;;;5.82;;
57842;SDS011;43673;51.058;3.734;2023-05-07T08:24:23;10.13;;;5.75;;
57842;SDS011;43673;51.058;3.734;2023-05-07T08:26:49;7.68;;;5.60;;
57842;SDS011;43673;51.058;3.734;2023-05-07T08:29:15;9.35;;;5.70;;
57842;SDS011;43673;51.058;3.734;2023-05-07T08:31:40;14.02;;;6.82;;
57842;SDS011;43673;51.058;3.734;2023-05-07T08:34:06;11.35;;;6.68;;
57842;SDS011;43673;51.058;3.734;2023-05-07T08:36:32;9.25;;;5.22;;
57842;SDS011;43673;51.058;3.734;2023-05-07T08:38:59;10.25;;;5.63;;
57842;SDS011;43673;51.058;3.734;2023-05-07T08:41:24;10.38;;;6.32;;
57842;SDS011;43673;51.058;3.734;2023-05-07T08:43:50;12.35;;;6.28;;
57842;SDS011;43673;51.058;3.734;2023-05-07T08:46:17;22.70;;;17.00;;
57842;SDS011;43673;51.058;3.734;2023-05-07T08:48:44;11.40;;;6.25;;
57842;SDS011;43673;51.058;3.734;2023-05-07T08:51:13;10.40;;;5.72;;
57842;SDS011;43673;51.058;3.734;2023-05-07T08:53:41;16.80;;;6.03;;
57842;SDS011;43673;51.058;3.734;2023-05-07T08:56:08;9.27;;;6.15;;
57842;SDS011;43673;51.058;3.734;2023-05-07T08:58:34;10.20;;;6.00;;
57842;SDS011;43673;51.058;3.734;2023-05-07T09:01:01;9.65;;;6.35;;
57842;SDS011;43673;51.058;3.734;2023-05-07T09:03:32;13.75;;;6.18;;
57842;SDS011;43673;51.058;3.734;2023-05-07T09:05:58;12.10;;;6.05;;
57842;SDS011;43673;51.058;3.734;2023-05-07T09:08:24;12.55;;;6.28;;
57842;SDS011;43673;51.058;3.734;2023-05-07T09:10:51;8.50;;;6.50;;
57842;SDS011;43673;51.058;3.734;2023-05-07T09:13:17;13.18;;;7.30;;
57842;SDS011;43673;51.058;3.734;2023-05-07T09:15:43;12.38;;;6.55;;
57842;SDS011;43673;51.058;3.734;2023-05-07T09:18:09;14.68;;;6.07;;
57842;SDS011;43673;51.058;3.734;2023-05-07T09:20:38;9.95;;;5.70;;
57842;SDS011;43673;51.058;3.734;2023-05-07T09:23:06;12.02;;;7.05;;
57842;SDS011;43673;51.058;3.734;2023-05-07T09:25:32;9.55;;;5.60;;
57842;SDS011;43673;51.058;3.734;2023-05-07T09:28:02;7.43;;;5.90;;
57842;SDS011;43673;51.058;3.734;2023-05-07T09:30:30;9.50;;;4.93;;
57842;SDS011;43673;51.058;3.734;2023-05-07T09:32:57;8.75;;;5.07;;
57842;SDS011;43673;51.058;3.734;2023-05-07T09:35:24;6.38;;;5.63;;
57842;SDS011;43673;51.058;3.734;2023-05-07T09:37:55;11.30;;;5.72;;
57842;SDS011;43673;51.058;3.734;2023-05-07T09:40:22;7.20;;;4.97;;
57842;SDS011;43673;51.058;3.734;2023-05-07T09:42:49;8.82;;;4.55;;
57842;SDS011;43673;51.058;3.734;2023-05-07T09:45:16;7.82;;;4.32;;
57842;SDS011;43673;51.058;3.734;2023-05-07T09:47:46;6.53;;;4.47;;
57842;SDS011;43673;51.058;3.734;2023-05-07T09:50:17;7.90;;;5.18;;
57842;SDS011;43673;51.058;3.734;2023-05-07T09:52:46;5.85;;;4.35;;
57842;SDS011;43673;51.058;3.734;2023-05-07T09:55:12;9.00;;;4.75;;
57842;SDS011;43673;51.058;3.734;2023-05-07T09:57:38;12.13;;;7.40;;
57842;SDS011;43673;51.058;3.734;2023-05-07T10:00:07;7.78;;;5.25;;
57842;SDS011;43673;51.058;3.734;2023-05-07T10:02:34;7.50;;;5.53;;
57842;SDS011;43673;51.058;3.734;2023-05-07T10:05:01;11.50;;;5.35;;
57842;SDS011;43673;51.058;3.734;2023-05-07T10:07:28;13.15;;;5.80;;
57842;SDS011;43673;51.058;3.734;2023-05-07T10:09:55;10.75;;;6.05;;
57842;SDS011;43673;51.058;3.734;2023-05-07T10:12:22;10.23;;;4.70;;
57842;SDS011;43673;51.058;3.734;2023-05-07T10:14:49;8.40;;;5.07;;
57842;SDS011;43673;51.058;3.734;2023-05-07T10:17:17;7.47;;;4.45;;
57842;SDS011;43673;51.058;3.734;2023-05-07T10:19:44;7.13;;;5.38;;
57842;SDS011;43673;51.058;3.734;2023-05-07T10:22:10;8.30;;;5.38;;
57842;SDS011;43673;51.058;3.734;2023-05-07T10:24:37;10.43;;;4.95;;
57842;SDS011;43673;51.058;3.734;2023-05-07T10:27:04;16.02;;;5.72;;
57842;SDS011;43673;51.058;3.734;2023-05-07T10:29:35;10.32;;;5.47;;
57842;SDS011;43673;51.058;3.734;2023-05-07T10:35:04;5.15;;;4.05;;
57842;SDS011;43673;51.058;3.734;2023-05-07T10:37:35;4.50;;;2.90;;
57842;SDS011;43673;51.058;3.734;2023-05-07T10:40:02;4.35;;;3.55;;
57842;SDS011;43673;51.058;3.734;2023-05-07T10:42:28;6.80;;;3.78;;
57842;SDS011;43673;51.058;3.734;2023-05-07T10:44:53;4.05;;;2.92;;
57842;SDS011;43673;51.058;3.734;2023-05-07T10:47:19;8.45;;;3.90;;
57842;SDS011;43673;51.058;3.734;2023-05-07T10:54:40;5.15;;;3.10;;
57842;SDS011;43673;51.058;3.734;2023-05-07T11:00:01;4.32;;;3.38;;
57842;SDS011;43673;51.058;3.734;2023-05-07T11:05:25;4.75;;;2.40;;
57842;SDS011;43673;51.058;3.734;2023-05-07T11:07:58;5.75;;;2.80;;
57842;SDS011;43673;51.058;3.734;2023-05-07T11:16:16;5.45;;;3.03;;
57842;SDS011;43673;51.058;3.734;2023-05-07T11:18:50;3.42;;;3.08;;
57842;SDS011;43673;51.058;3.734;2023-05-07T11:21:31;6.28;;;3.33;;
57842;SDS011;43673;51.058;3.734;2023-05-07T11:24:01;4.97;;;3.67;;
57842;SDS011;43673;51.058;3.734;2023-05-07T11:26:29;5.55;;;3.53;;
57842;SDS011;43673;51.058;3.734;2023-05-07T11:28:56;5.68;;;3.45;;
57842;SDS011;43673;51.058;3.734;2023-05-07T11:31:25;3.50;;;2.90;;
57842;SDS011;43673;51.058;3.734;2023-05-07T11:33:53;7.35;;;3.95;;
57842;SDS011;43673;51.058;3.734;2023-05-07T11:36:20;6.07;;;3.35;;
57842;SDS011;43673;51.058;3.734;2023-05-07T11:38:47;9.20;;;4.10;;
57842;SDS011;43673;51.058;3.734;2023-05-07T11:41:13;4.75;;;3.25;;
57842;SDS011;43673;51.058;3.734;2023-05-07T11:43:52;4.72;;;2.90;;
57842;SDS011;43673;51.058;3.734;2023-05-07T11:46:20;4.22;;;2.60;;
57842;SDS011;43673;51.058;3.734;2023-05-07T11:48:45;5.18;;;2.63;;
57842;SDS011;43673;51.058;3.734;2023-05-07T11:51:11;4.10;;;3.08;;
57842;SDS011;43673;51.058;3.734;2023-05-07T11:53:39;3.92;;;2.55;;
57842;SDS011;43673;51.058;3.734;2023-05-07T11:56:09;2.53;;;2.20;;
57842;SDS011;43673;51.058;3.734;2023-05-07T11:58:36;5.05;;;2.60;;
57842;SDS011;43673;51.058;3.734;2023-05-07T12:01:02;3.17;;;2.75;;
57842;SDS011;43673;51.058;3.734;2023-05-07T12:03:28;4.20;;;2.83;;
57842;SDS011;43673;51.058;3.734;2023-05-07T12:05:54;3.00;;;2.70;;
57842;SDS011;43673;51.058;3.734;2023-05-07T12:08:20;4.75;;;3.33;;
57842;SDS011;43673;51.058;3.734;2023-05-07T12:10:48;5.10;;;2.55;;
57842;SDS011;43673;51.058;3.734;2023-05-07T12:15:41;3.08;;;2.75;;
57842;SDS011;43673;51.058;3.734;2023-05-07T12:18:07;4.55;;;2.85;;
57842;SDS011;43673;51.058;3.734;2023-05-07T12:20:37;3.42;;;2.85;;
57842;SDS011;43673;51.058;3.734;2023-05-07T12:23:02;6.13;;;3.40;;
57842;SDS011;43673;51.058;3.734;2023-05-07T12:25:35;7.35;;;3.33;;
57842;SDS011;43673;51.058;3.734;2023-05-07T12:28:02;4.13;;;3.03;;
57842;SDS011;43673;51.058;3.734;2023-05-07T12:30:30;3.80;;;3.05;;
57842;SDS011;43673;51.058;3.734;2023-05-07T12:32:57;5.63;;;3.47;;
57842;SDS011;43673;51.058;3.734;2023-05-07T12:35:30;3.47;;;3.13;;
57842;SDS011;43673;51.058;3.734;2023-05-07T12:37:57;5.30;;;3.20;;
57842;SDS011;43673;51.058;3.734;2023-05-07T12:40:25;3.38;;;3.03;;
57842;SDS011;43673;51.058;3.734;2023-05-07T12:43:07;3.40;;;2.67;;
57842;SDS011;43673;51.058;3.734;2023-05-07T12:45:47;4.75;;;3.13;;
57842;SDS011;43673;51.058;3.734;2023-05-07T12:48:15;6.07;;;3.38;;
57842;SDS011;43673;51.058;3.734;2023-05-07T12:50:41;4.43;;;3.47;;
57842;SDS011;43673;51.058;3.734;2023-05-07T12:53:08;3.97;;;2.85;;
57842;SDS011;43673;51.058;3.734;2023-05-07T12:55:46;3.00;;;2.72;;
57842;SDS011;43673;51.058;3.734;2023-05-07T12:58:17;4.28;;;3.30;;
57842;SDS011;43673;51.058;3.734;2023-05-07T13:00:52;4.80;;;3.60;;
57842;SDS011;43673;51.058;3.734;2023-05-07T13:03:26;3.42;;;2.80;;
57842;SDS011;43673;51.058;3.734;2023-05-07T13:05:54;4.55;;;2.70;;
57842;SDS011;43673;51.058;3.734;2023-05-07T13:13:55;3.70;;;2.75;;
57842;SDS011;43673;51.058;3.734;2023-05-07T13:16:21;6.22;;;3.60;;
57842;SDS011;43673;51.058;3.734;2023-05-07T13:18:47;3.15;;;2.78;;
57842;SDS011;43673;51.058;3.734;2023-05-07T13:21:12;6.57;;;3.70;;
57842;SDS011;43673;51.058;3.734;2023-05-07T13:23:56;3.03;;;2.83;;
57842;SDS011;43673;51.058;3.734;2023-05-07T13:26:22;3.50;;;2.40;;
57842;SDS011;43673;51.058;3.734;2023-05-07T13:28:48;3.45;;;2.88;;
57842;SDS011;43673;51.058;3.734;2023-05-07T13:31:14;3.13;;;2.60;;
57842;SDS011;43673;51.058;3.734;2023-05-07T13:33:40;4.97;;;2.90;;
57842;SDS011;43673;51.058;3.734;2023-05-07T13:36:08;3.65;;;2.55;;
57842;SDS011;43673;51.058;3.734;2023-05-07T13:38:34;3.38;;;2.78;;
57842;SDS011;43673;51.058;3.734;2023-05-07T13:41:00;3.95;;;3.00;;
57842;SDS011;43673;51.058;3.734;2023-05-07T13:43:25;4.40;;;2.80;;
57842;SDS011;43673;51.058;3.734;2023-05-07T13:45:51;4.03;;;2.70;;
57842;SDS011;43673;51.058;3.734;2023-05-07T13:48:17;4.13;;;3.10;;
57842;SDS011;43673;51.058;3.734;2023-05-07T13:50:42;3.28;;;2.83;;
57842;SDS011;43673;51.058;3.734;2023-05-07T13:53:08;5.15;;;3.67;;
57842;SDS011;43673;51.058;3.734;2023-05-07T13:55:34;4.65;;;3.17;;
57842;SDS011;43673;51.058;3.734;2023-05-07T13:58:06;3.55;;;2.83;;
57842;SDS011;43673;51.058;3.734;2023-05-07T14:00:35;4.50;;;2.97;;
57842;SDS011;43673;51.058;3.734;2023-05-07T14:03:02;4.93;;;3.03;;
57842;SDS011;43673;51.058;3.734;2023-05-07T14:05:29;5.70;;;3.03;;
57842;SDS011;43673;51.058;3.734;2023-05-07T14:07:55;3.88;;;3.00;;
57842;SDS011;43673;51.058;3.734;2023-05-07T14:10:22;4.70;;;3.60;;
57842;SDS011;43673;51.058;3.734;2023-05-07T14:12:48;5.50;;;3.65;;
57842;SDS011;43673;51.058;3.734;2023-05-07T14:15:14;5.32;;;3.03;;
57842;SDS011;43673;51.058;3.734;2023-05-07T14:17:41;4.07;;;3.25;;
57842;SDS011;43673;51.058;3.734;2023-05-07T14:20:07;6.35;;;3.92;;
57842;SDS011;43673;51.058;3.734;2023-05-07T14:22:33;6.15;;;4.22;;
57842;SDS011;43673;51.058;3.734;2023-05-07T14:24:59;8.32;;;4.90;;
57842;SDS011;43673;51.058;3.734;2023-05-07T14:27:25;6.03;;;5.43;;
57842;SDS011;43673;51.058;3.734;2023-05-07T14:29:50;9.73;;;8.07;;
57842;SDS011;43673;51.058;3.734;2023-05-07T14:32:19;9.38;;;7.35;;
57842;SDS011;43673;51.058;3.734;2023-05-07T14:34:45;10.95;;;7.93;;
57842;SDS011;43673;51.058;3.734;2023-05-07T14:37:11;8.43;;;6.28;;
57842;SDS011;43673;51.058;3.734;2023-05-07T14:39:37;9.70;;;7.25;;
57842;SDS011;43673;51.058;3.734;2023-05-07T14:42:03;9.35;;;6.18;;
57842;SDS011;43673;51.058;3.734;2023-05-07T14:44:29;9.07;;;5.68;;
57842;SDS011;43673;51.058;3.734;2023-05-07T14:46:54;6.80;;;6.10;;
57842;SDS011;43673;51.058;3.734;2023-05-07T14:49:20;6.65;;;5.60;;
57842;SDS011;43673;51.058;3.734;2023-05-07T14:51:46;8.90;;;6.35;;
57842;SDS011;43673;51.058;3.734;2023-05-07T14:54:12;7.35;;;5.85;;
57842;SDS011;43673;51.058;3.734;2023-05-07T14:56:39;6.53;;;5.90;;
57842;SDS011;43673;51.058;3.734;2023-05-07T14:59:05;7.07;;;5.90;;
57842;SDS011;43673;51.058;3.734;2023-05-07T15:01:31;9.88;;;6.35;;
57842;SDS011;43673;51.058;3.734;2023-05-07T15:03:57;7.45;;;5.38;;